Time;durP1;ratioP1;P1;durP2;ratioP2;P2;SDS_P1;SDS_P2;PMS_P1;PMS_P2;Temp;Humidity;BMP_temperature;BMP_pressure;BME280_temperature;BME280_humidity;BME280_pressure;Samples;Min_cycle;Max_cycle;Signal;HPM_P1;HPM_P2
2024/01/13 00:09:22;;;;;;;;;;;;;;;-3.02;100.00;99638.19;433098;1260;127624;-62
2024/01/13 00:19:28;;;;;;;10.80;6.70;;;;;;;-3.01;100.00;99616.09;433230;1261;128456;-63
2024/01/13 00:29:34;;;;;;;10.10;6.70;;;;;;;-2.98;100.00;99595.50;433132;1260;140186;-62
2024/01/13 00:39:40;;;;;;;7.30;5.80;;;;;;;-2.94;100.00;99606.95;433053;1260;140097;-62
2024/01/13 00:49:44;;;;;;;;;;;;;;;-2.88;100.00;99618.55;434556;1260;140775;-62
2024/01/13 00:59:50;;;;;;;9.20;8.00;;;;;;;-2.84;100.00;99604.46;433174;1260;126736;-63
2024/01/13 01:09:56;;;;;;;10.60;7.50;;;;;;;-2.80;100.00;99603.58;434180;1260;144268;-62
2024/01/13 01:20:02;;;;;;;11.50;8.80;;;;;;;-2.75;100.00;99604.91;433131;1260;140019;-63
2024/01/13 01:30:10;;;;;;;11.00;7.90;;;;;;;-2.71;100.00;99609.66;432986;1260;140324;-62
2024/01/13 01:40:20;;;;;;;11.80;7.60;;;;;;;-2.67;100.00;99601.91;434304;1261;141578;-63
2024/01/13 01:50:26;;;;;;;10.50;7.20;;;;;;;-2.61;100.00;99587.45;433311;1260;141791;-62
2024/01/13 02:00:33;;;;;;;10.40;8.00;;;;;;;-2.58;100.00;99579.73;433204;1262;140878;-62
2024/01/13 02:10:39;;;;;;;13.10;8.40;;;;;;;-2.56;100.00;99566.66;436965;1257;140764;-62
2024/01/13 02:20:45;;;;;;;8.90;6.80;;;;;;;-2.54;100.00;99560.64;433458;1258;139896;-62
2024/01/13 02:30:50;;;;;;;10.60;7.70;;;;;;;-2.51;100.00;99541.06;434045;1260;399041;-62
2024/01/13 02:40:56;;;;;;;9.00;7.70;;;;;;;-2.48;100.00;99530.75;433435;1257;140265;-62
2024/01/13 02:51:06;;;;;;;9.80;7.70;;;;;;;-2.45;100.00;99529.36;434069;1260;141156;-62
2024/01/13 03:01:13;;;;;;;9.40;7.40;;;;;;;-2.43;100.00;99521.09;438880;1260;139733;-61
2024/01/13 03:11:22;;;;;;;10.30;7.70;;;;;;;-2.41;100.00;99511.81;433183;1260;140823;-61
2024/01/13 03:21:32;;;;;;;10.20;7.60;;;;;;;-2.40;100.00;99507.69;433191;1259;141366;-62
2024/01/13 03:31:38;;;;;;;10.70;8.70;;;;;;;-2.41;100.00;99505.29;434139;1257;140861;-62
2024/01/13 03:41:44;;;;;;;8.90;7.80;;;;;;;-2.39;100.00;99500.98;437483;1257;141217;-62
2024/01/13 03:51:50;;;;;;;11.60;8.20;;;;;;;-2.36;100.00;99478.65;433073;1257;139788;-63
2024/01/13 04:01:56;;;;;;;12.60;9.10;;;;;;;-2.33;100.00;99466.95;432916;1257;140067;-62
2024/01/13 04:12:02;;;;;;;12.20;8.50;;;;;;;-2.31;100.00;99460.93;433577;1260;140751;-61
2024/01/13 04:22:08;;;;;;;9.80;8.20;;;;;;;-2.31;100.00;99470.70;433387;1260;139805;-62
2024/01/13 04:32:14;;;;;;;11.20;8.50;;;;;;;-2.30;100.00;99482.36;432795;1260;140050;-61
2024/01/13 04:42:20;;;;;;;12.20;9.20;;;;;;;-2.30;100.00;99483.05;432555;1257;140591;-61
2024/01/13 04:52:26;;;;;;;11.60;9.20;;;;;;;-2.30;100.00;99495.39;432737;1260;140358;-62
2024/01/13 05:02:31;;;;;;;11.50;8.60;;;;;;;-2.27;100.00;99500.49;432717;1260;139968;-62
2024/01/13 05:12:48;;;;;;;10.70;8.40;;;;;;;-2.24;100.00;99490.34;433708;1259;141027;-62
2024/01/13 05:22:53;;;;;;;;;;;;;;;-2.22;100.00;99489.80;433263;1256;141431;-63
2024/01/13 05:32:59;;;;;;;11.60;8.50;;;;;;;-2.22;100.00;99472.66;434904;1257;126215;-62
2024/01/13 05:43:05;;;;;;;15.40;8.10;;;;;;;-2.23;100.00;99477.30;432942;1257;140365;-63
2024/01/13 05:53:09;;;;;;;;;;;;;;;-2.22;100.00;99469.73;436371;1255;140725;-63
2024/01/13 06:03:15;;;;;;;11.20;9.50;;;;;;;-2.22;100.00;99474.88;433492;1256;126539;-62
2024/01/13 06:13:21;;;;;;;11.70;9.00;;;;;;;-2.23;100.00;99473.02;432923;1258;140810;-62
2024/01/13 06:23:27;;;;;;;11.30;8.70;;;;;;;-2.24;100.00;99471.13;433836;1256;141430;-61
2024/01/13 06:33:32;;;;;;;13.00;9.80;;;;;;;-2.23;100.00;99470.77;433727;1255;140970;-62
2024/01/13 06:43:38;;;;;;;13.10;9.70;;;;;;;-2.25;100.00;99448.16;433302;1256;141186;-62
2024/01/13 06:53:44;;;;;;;9.80;7.30;;;;;;;-2.27;100.00;99447.67;432757;1260;141910;-61
2024/01/13 07:03:52;;;;;;;12.80;9.00;;;;;;;-2.28;100.00;99445.28;433804;1256;141040;-62
2024/01/13 07:13:58;;;;;;;11.70;8.40;;;;;;;-2.28;100.00;99446.32;434500;1259;140894;-62
2024/01/13 07:24:06;;;;;;;14.10;9.60;;;;;;;-2.27;100.00;99444.40;432800;1256;140296;-62
2024/01/13 07:34:12;;;;;;;12.30;8.10;;;;;;;-2.23;100.00;99434.41;434206;1256;139901;-62
2024/01/13 07:44:18;;;;;;;16.20;10.30;;;;;;;-2.18;100.00;99435.90;432986;1257;140574;-63
2024/01/13 07:54:23;;;;;;;21.00;11.10;;;;;;;-2.17;100.00;99430.05;432708;1260;141132;-62
2024/01/13 08:04:29;;;;;;;19.60;12.50;;;;;;;-2.15;100.00;99429.33;433808;1256;140898;-61
2024/01/13 08:14:35;;;;;;;18.70;12.20;;;;;;;-2.16;100.00;99420.09;432992;1257;141912;-62
2024/01/13 08:24:41;;;;;;;13.90;9.10;;;;;;;-2.15;100.00;99409.77;432923;1257;140914;-62
2024/01/13 08:34:47;;;;;;;21.10;12.40;;;;;;;-2.11;100.00;99406.80;433057;1256;140359;-61
2024/01/13 08:44:54;;;;;;;18.20;12.30;;;;;;;-2.06;100.00;99397.13;433034;1256;140666;-62
2024/01/13 08:54:59;;;;;;;28.70;13.10;;;;;;;-1.97;100.00;99385.33;432805;1256;142764;-62
2024/01/13 09:05:06;;;;;;;23.60;13.00;;;;;;;-1.90;100.00;99385.73;432921;1260;140930;-62
2024/01/13 09:15:13;;;;;;;19.50;12.60;;;;;;;-1.88;100.00;99385.33;433578;1259;140322;-62
2024/01/13 09:25:19;;;;;;;22.10;12.00;;;;;;;-1.84;100.00;99378.42;435809;1256;141245;-62
2024/01/13 09:35:30;;;;;;;21.50;13.50;;;;;;;-1.76;100.00;99357.52;433027;1256;140223;-62
2024/01/13 09:45:39;;;;;;;22.40;14.60;;;;;;;-1.62;100.00;99333.59;432855;1256;141216;-63
2024/01/13 09:55:45;;;;;;;24.30;16.70;;;;;;;-1.48;100.00;99321.31;432888;1260;141654;-62
2024/01/13 10:05:53;;;;;;;19.50;13.00;;;;;;;-1.42;100.00;99297.84;432907;1260;140373;-61
2024/01/13 10:15:59;;;;;;;17.90;13.20;;;;;;;-1.39;100.00;99288.16;432877;1257;140974;-62
2024/01/13 10:26:07;;;;;;;17.20;12.60;;;;;;;-1.35;100.00;99273.51;432910;1256;141654;-62
2024/01/13 10:36:12;;;;;;;13.80;10.50;;;;;;;-1.33;100.00;99266.41;434245;1260;140783;-62
2024/01/13 10:46:25;;;;;;;11.80;9.60;;;;;;;-1.29;100.00;99260.50;436986;1255;141871;-63
2024/01/13 10:56:32;;;;;;;9.10;6.60;;;;;;;-1.13;100.00;99230.78;433401;1257;141753;-62
2024/01/13 11:06:37;;;;;;;9.60;7.50;;;;;;;-1.01;100.00;99210.76;432929;1256;141168;-63
2024/01/13 11:16:45;;;;;;;7.10;5.20;;;;;;;-0.91;100.00;99182.36;432786;1258;140289;-60
2024/01/13 11:26:54;;;;;;;7.70;5.70;;;;;;;-0.81;100.00;99165.98;441032;1255;139613;-61
2024/01/13 11:37:01;;;;;;;8.90;6.40;;;;;;;-0.74;100.00;99151.71;438214;1256;139988;-62
2024/01/13 11:47:09;;;;;;;10.80;8.30;;;;;;;-0.66;100.00;99127.63;432571;1258;141517;-61
2024/01/13 11:57:17;;;;;;;10.40;8.00;;;;;;;-0.55;100.00;99117.19;435149;1255;141913;-62
2024/01/13 12:07:24;;;;;;;13.70;8.20;;;;;;;-0.46;100.00;99106.46;433205;1260;140977;-63
2024/01/13 12:17:30;;;;;;;11.00;8.60;;;;;;;-0.44;100.00;99083.20;434694;1256;141253;-63
2024/01/13 12:27:36;;;;;;;19.60;12.80;;;;;;;-0.53;100.00;99029.45;433682;1259;140452;-62
2024/01/13 12:37:43;;;;;;;12.10;10.60;;;;;;;-0.59;100.00;99025.49;434148;1260;141022;-62
2024/01/13 12:47:53;;;;;;;10.60;7.90;;;;;;;-0.70;100.00;99024.05;435109;1256;140782;-62
2024/01/13 12:57:59;;;;;;;13.30;8.80;;;;;;;-0.72;100.00;99006.41;433556;1256;140486;-63
2024/01/13 13:08:06;;;;;;;8.70;6.00;;;;;;;-0.70;100.00;99001.88;433390;1260;141581;-62
2024/01/13 13:18:11;;;;;;;7.20;4.50;;;;;;;-0.73;100.00;98972.92;434791;1260;140565;-63
2024/01/13 13:28:18;;;;;;;6.50;5.70;;;;;;;-0.73;100.00;98961.88;433666;1256;140296;-63
2024/01/13 13:38:24;;;;;;;7.10;5.80;;;;;;;-0.70;100.00;98946.00;433605;1257;141293;-63
2024/01/13 13:48:33;;;;;;;8.40;6.60;;;;;;;-0.67;100.00;98933.57;433081;1256;140489;-62
2024/01/13 13:58:40;;;;;;;7.50;5.50;;;;;;;-0.69;100.00;98908.35;433145;1256;140121;-63
2024/01/13 14:08:46;;;;;;;10.70;7.10;;;;;;;-0.72;100.00;98889.52;433217;1259;140570;-62
2024/01/13 14:18:52;;;;;;;6.00;5.30;;;;;;;-0.75;100.00;98885.31;432976;1260;140488;-63
2024/01/13 14:28:58;;;;;;;7.30;6.20;;;;;;;-0.82;100.00;98878.98;434418;1256;196400;-63
2024/01/13 14:39:03;;;;;;;9.30;7.60;;;;;;;-0.85;100.00;98870.14;433061;1257;141056;-62
2024/01/13 14:49:10;;;;;;;8.20;6.50;;;;;;;-0.89;100.00;98862.15;433908;1255;140799;-64
2024/01/13 14:59:16;;;;;;;6.60;5.90;;;;;;;-0.93;100.00;98856.63;436923;1259;139793;-63
2024/01/13 15:09:22;;;;;;;6.40;5.70;;;;;;;-0.93;100.00;98848.03;433294;1260;140001;-66
2024/01/13 15:19:28;;;;;;;6.40;5.80;;;;;;;-0.97;100.00;98823.03;434869;1258;140047;-66
2024/01/13 15:29:34;;;;;;;9.10;6.90;;;;;;;-1.02;100.00;98809.95;432867;1259;140035;-66
2024/01/13 15:39:40;;;;;;;11.30;8.20;;;;;;;-1.03;100.00;98801.58;433005;1256;140102;-66
2024/01/13 15:49:45;;;;;;;12.10;8.90;;;;;;;-1.07;100.00;98790.51;433583;1261;140134;-66
2024/01/13 15:59:52;;;;;;;10.10;8.00;;;;;;;-1.10;100.00;98770.18;435229;1260;140920;-65
2024/01/13 16:09:58;;;;;;;16.30;8.60;;;;;;;-1.16;100.00;98757.44;433046;1260;140681;-61
2024/01/13 16:20:04;;;;;;;8.40;6.60;;;;;;;-1.20;100.00;98748.29;432878;1260;142412;-62
2024/01/13 16:30:11;;;;;;;8.30;6.90;;;;;;;-1.21;100.00;98743.02;432921;1256;139903;-62
2024/01/13 16:40:18;;;;;;;11.00;8.30;;;;;;;-1.21;100.00;98725.64;440954;1260;141221;-62
2024/01/13 16:50:30;;;;;;;7.90;6.50;;;;;;;-1.21;100.00;98703.84;443146;1256;140387;-62
2024/01/13 17:00:36;;;;;;;7.90;6.60;;;;;;;-1.23;100.00;98689.65;433687;1259;140384;-63
2024/01/13 17:10:42;;;;;;;7.00;5.60;;;;;;;-1.28;100.00;98675.19;433830;1258;140913;-62
2024/01/13 17:20:48;;;;;;;8.90;6.70;;;;;;;-1.30;100.00;98658.77;433838;1256;139810;-62
2024/01/13 17:30:54;;;;;;;7.50;6.50;;;;;;;-1.31;100.00;98644.02;433496;1259;140633;-62
2024/01/13 17:41:00;;;;;;;9.00;6.30;;;;;;;-1.34;100.00;98628.52;433696;1259;141075;-61
2024/01/13 17:51:07;;;;;;;8.90;6.40;;;;;;;-1.42;100.00;98610.20;433166;1259;140136;-61
2024/01/13 18:01:17;;;;;;;9.90;8.70;;;;;;;-1.46;100.00;98593.34;434202;1256;140132;-61
2024/01/13 18:11:23;;;;;;;9.40;8.00;;;;;;;-1.51;100.00;98577.52;432916;1260;141179;-62
2024/01/13 18:21:29;;;;;;;10.50;7.40;;;;;;;-1.55;100.00;98567.84;433041;1260;142495;-67
2024/01/13 18:31:35;;;;;;;16.60;11.00;;;;;;;-1.58;100.00;98560.74;433065;1259;140886;-68
2024/01/13 18:41:41;;;;;;;11.30;8.60;;;;;;;-1.60;100.00;98555.83;432896;1259;141231;-63
2024/01/13 18:51:47;;;;;;;12.50;8.80;;;;;;;-1.63;100.00;98534.46;433057;1260;140095;-64
2024/01/13 19:01:53;;;;;;;11.50;7.90;;;;;;;-1.67;100.00;98527.70;433344;1260;140837;-68
2024/01/13 19:11:59;;;;;;;13.30;8.90;;;;;;;-1.71;100.00;98521.84;432657;1260;140627;-68
2024/01/13 19:22:08;;;;;;;13.40;10.10;;;;;;;-1.73;100.00;98508.32;432872;1261;139930;-70
2024/01/13 19:32:14;;;;;;;11.50;9.90;;;;;;;-1.75;100.00;98493.65;434654;1260;140046;-76
2024/01/13 19:42:20;;;;;;;12.20;8.80;;;;;;;-1.75;100.00;98471.17;438285;1258;141036;-73
2024/01/13 19:52:25;;;;;;;;;;;;;;;-1.72;100.00;98450.30;434436;1257;140555;-71
2024/01/13 20:02:31;;;;;;;15.00;9.90;;;;;;;-1.72;100.00;98433.32;435528;1260;126468;-69
2024/01/13 20:12:37;;;;;;;15.50;10.50;;;;;;;-1.72;100.00;98417.53;432749;1260;141651;-69
2024/01/13 20:22:43;;;;;;;13.10;9.10;;;;;;;-1.69;100.00;98407.84;433123;1260;140383;-70
2024/01/13 20:32:50;;;;;;;11.10;9.50;;;;;;;-1.65;100.00;98384.52;435614;1263;139746;-72
2024/01/13 20:42:57;;;;;;;16.00;11.70;;;;;;;-1.58;100.00;98377.44;433633;1260;141624;-72
2024/01/13 20:53:03;;;;;;;12.80;9.20;;;;;;;-1.56;100.00;98367.40;433330;1260;140564;-72
2024/01/13 21:03:13;;;;;;;11.20;8.80;;;;;;;-1.56;100.00;98361.91;432920;1260;140855;-72
2024/01/13 21:13:19;;;;;;;12.60;10.40;;;;;;;-1.55;100.00;98361.89;445145;1258;140688;-72
2024/01/13 21:23:25;;;;;;;12.40;9.70;;;;;;;-1.52;100.00;98359.55;434234;1261;142947;-67
2024/01/13 21:33:31;;;;;;;13.20;8.90;;;;;;;-1.50;100.00;98343.52;435525;1260;142730;-68
2024/01/13 21:43:38;;;;;;;11.50;9.00;;;;;;;-1.52;100.00;98334.16;432752;1263;140171;-68
2024/01/13 21:53:44;;;;;;;13.10;9.80;;;;;;;-1.53;100.00;98316.02;432534;1261;140257;-68
2024/01/13 22:03:50;;;;;;;15.90;11.70;;;;;;;-1.56;100.00;98301.16;433281;1257;140248;-69
2024/01/13 22:13:56;;;;;;;12.00;10.00;;;;;;;-1.58;100.00;98288.88;433451;1257;140113;-68
2024/01/13 22:24:00;;;;;;;;;;;;;;;-1.59;100.00;98271.23;433429;1259;140414;-67
2024/01/13 22:34:06;;;;;;;13.10;10.50;;;;;;;-1.58;100.00;98257.09;432960;1259;126421;-69
2024/01/13 22:44:12;;;;;;;12.50;10.10;;;;;;;-1.56;100.00;98247.94;432839;1257;141715;-68
2024/01/13 22:54:18;;;;;;;10.90;8.20;;;;;;;-1.53;100.00;98235.84;432692;1257;140281;-68
2024/01/13 23:04:24;;;;;;;14.90;12.30;;;;;;;-1.47;100.00;98226.00;432817;1260;140081;-69
2024/01/13 23:14:31;;;;;;;11.30;9.00;;;;;;;-1.39;100.00;98211.14;432776;1260;140273;-68
2024/01/13 23:24:37;;;;;;;11.40;8.80;;;;;;;-1.33;100.00;98201.98;432805;1260;140362;-67
2024/01/13 23:34:43;;;;;;;15.30;9.80;;;;;;;-1.29;100.00;98183.25;432928;1259;141398;-68
2024/01/13 23:44:49;;;;;;;10.60;9.50;;;;;;;-1.25;100.00;98173.68;433376;1257;140319;-68
2024/01/13 23:54:56;;;;;;;10.90;9.40;;;;;;;-1.21;100.00;98165.80;436600;1257;139763;-68
